• Join FlightAware (Why Join?)
  • Login
  • US Flag 
02:07AM EDT


 

Airport Tracker/Info


-or-


 

Live Flight TrackerFlight Track Log ✈ DAL3678 ✈ 11-Apr-2013 ✈ KMKE - KDTW

Flight Track Log - Related Links

Times and Time Zones

All times are in EDT time to prevent confusion due to time zone crossing. See the DAL3678 flight status page for this flight to view local times or setup timezone preferences in your user account.

Time Position Orientation Groundspeed Altitude Reporting Facility
EDT Latitude Longitude Course Direction KTS MPH feet Rate Location/Type
04:30PM 42.9500 -87.8833 90° East 135 155 1,700  Level KMKE
04:30PM 42.9500 -87.8500 90° East 161 185 3,100 1,740 Climbing KMKE
04:31PM 42.9589 -87.8133 72° East 180 207 4,000 1,500 Climbing Chicago Center
04:32PM 42.9742 -87.7028 79° East 259 298 5,600 2,100 Climbing Chicago Center
04:33PM 42.9886 -87.5958 80° East 285 328 8,400 2,280 Climbing Chicago Center
04:34PM 42.9869 -87.4844 91° East 296 341 10,400 1,620 Climbing Chicago Center
04:35PM 42.9867 -87.3683 90° East 314 361 11,800 1,380 Climbing Chicago Center
04:36PM 42.9856 -87.2361 91° East 346 398 13,300 1,500 Climbing Chicago Center
04:37PM 42.9839 -87.0764 91° East 352 405 15,000 1,500 Climbing Chicago Center
04:38PM 42.9947 -86.9397 84° East 366 421 16,400 1,200 Climbing Chicago Center
04:39PM 43.0167 -86.8017 78° East 373 429 17,600 1,020 Climbing Chicago Center
04:40PM 43.0381 -86.6614 78° East 377 434 18,600 660 Climbing Chicago Center
04:41PM 43.0614 -86.5128 78° East 394 453 19,000 180 Climbing Chicago Center
04:42PM 43.0842 -86.3667 78° East 395 455 19,000  Level Chicago Center
04:43PM 43.1056 -86.2200 79° East 392 451 19,000  Level Chicago Center
04:44PM 43.1328 -86.0392 78° East 395 455 19,000  Level Chicago Center
04:45PM 43.1547 -85.8847 79° East 400 460 19,000  Level Chicago Center
04:46PM 43.1758 -85.7369 79° East 392 451 19,000  Level Chicago Center
04:47PM 43.1958 -85.5914 79° East 390 449 19,000  Level Chicago Center
04:48PM 43.2175 -85.4397 79° East 401 461 19,000  Level Chicago Center
04:49PM 43.2308 -85.3511 78° East 411 473 19,000  Level Cleveland Center
04:50PM 43.2419 -85.1836 85° East 405 466 19,000  Level Cleveland Center
04:51PM 43.2142 -85.0419 105° East 390 449 19,000  Level Cleveland Center
04:52PM 43.1861 -84.8975 105° East 385 443 19,000 -480 Level Cleveland Center
04:53PM 43.1581 -84.7558 105° East 385 443 18,100 -960 Descending Cleveland Center
04:54PM 43.1144 -84.6364 117° Southeast 373 429 17,100 -1,020 Descending Cleveland Center
04:55PM 43.0886 -84.5819 123° Southeast 340 391 16,500 -1,080 Descending Chicago Center
04:56PM 43.0411 -84.4708 120° Southeast 337 388 15,400 -840 Descending Chicago Center
04:57PM 43.0086 -84.3497 110° East 338 389 14,800 -660 Descending Chicago Center
04:57PM 42.9942 -84.3047 114° Southeast 338 389 14,500 -1,020 Descending Cleveland Center
04:58PM 42.9736 -84.2269 110° East 355 409 14,000 -720 Descending Cleveland Center
04:58PM 42.9586 -84.1778 113° Southeast 344 396 13,800 -660 Descending Cleveland Center
04:59PM 42.9344 -84.0800 109° East 354 407 13,200 -840 Descending Cleveland Center
04:59PM 42.9228 -84.0539 121° Southeast 344 396 13,000 -780 Descending Cleveland Center
05:00PM 42.9003 -83.9675 110° East 350 403 12,500 -720 Descending Cleveland Center
05:00PM 42.8911 -83.9300 108° East 349 402 12,300 -360 Descending Cleveland Center
05:01PM 42.8528 -83.8064 113° Southeast 349 402 12,000 -180 Descending Cleveland Center
05:02PM 42.8031 -83.7189 128° Southeast 319 367 12,000  Level Cleveland Center
05:03PM 42.7253 -83.6697 155° Southeast 307 353 12,000  Level Cleveland Center
05:04PM 42.6389 -83.6203 157° South 304 350 12,000  Level Cleveland Center
05:05PM 42.5631 -83.5742 156° South 312 359 12,000  Level Cleveland Center
05:06PM 42.4831 -83.5253 156° South 314 361 12,000  Level Cleveland Center
05:07PM 42.4028 -83.4822 158° South 309 356 12,000 -60 Level Cleveland Center
05:08PM 42.3411 -83.4514 160° South 228 262 11,900 -840 Descending Cleveland Center
05:09PM 42.2847 -83.4489 178° South 230 265 10,500 -1,620 Descending Cleveland Center
05:10PM 42.2300 -83.4772 201° Southwest 213 245 8,900 -1,620 Descending Cleveland Center
05:11PM 42.1772 -83.5028 200° South 210 242 7,400 -1,800 Descending Cleveland Center
05:12PM 42.1242 -83.5339 204° Southwest 202 232 5,500 -1,980 Descending Cleveland Center
05:13PM 42.0669 -83.5678 204° Southwest 197 227 3,300 -1,200 Descending Cleveland Center
05:14PM 42.0561 -83.5083 104° East 200 230 3,000 -180 Descending Cleveland Center
05:15PM 42.0925 -83.4653 41° Northeast 176 203 3,000 -360 Level Cleveland Center
05:16PM 42.1286 -83.4389 28° Northeast 131 151 2,400 -600 Descending Cleveland Center